createdAt,value
2019-05-20T00:01:47.251Z,7.33
2019-05-20T00:05:52.202Z,7.30
2019-05-20T00:09:57.607Z,9.20
2019-05-20T00:14:02.366Z,6.70
2019-05-20T00:18:07.271Z,7.83
2019-05-20T00:22:12.140Z,5.78
2019-05-20T00:26:16.951Z,7.50
2019-05-20T00:30:22.004Z,7.22
2019-05-20T00:34:35.203Z,6.08
2019-05-20T00:38:33.814Z,6.85
2019-05-20T00:42:41.374Z,8.70
2019-05-20T00:46:46.284Z,7.45
2019-05-20T00:50:51.101Z,6.83
2019-05-20T00:54:56.061Z,6.55
2019-05-20T00:59:01.477Z,8.23
2019-05-20T01:03:06.345Z,6.33
2019-05-20T01:07:11.095Z,8.95
2019-05-20T01:11:15.908Z,7.37
2019-05-20T01:15:21.095Z,7.15
2019-05-20T01:19:25.912Z,7.92
2019-05-20T01:23:30.799Z,7.05
2019-05-20T01:27:35.692Z,10.15
2019-05-20T01:31:40.504Z,7.83
2019-05-20T01:35:45.410Z,10.05
2019-05-20T01:39:50.137Z,6.90
2019-05-20T01:43:54.947Z,5.45
2019-05-20T01:47:59.777Z,9.13
2019-05-20T01:52:04.653Z,7.03
2019-05-20T01:56:09.542Z,9.48
2019-05-20T02:00:14.937Z,8.30
2019-05-20T02:04:19.912Z,9.38
2019-05-20T02:08:24.788Z,9.75
2019-05-20T02:12:29.753Z,8.60
2019-05-20T02:16:34.656Z,9.78
2019-05-20T02:20:39.469Z,9.13
2019-05-20T02:24:44.331Z,8.98
2019-05-20T02:28:49.136Z,9.75
2019-05-20T02:32:53.877Z,11.50
2019-05-20T02:36:59.597Z,11.12
2019-05-20T02:41:04.570Z,11.53
2019-05-20T02:45:13.754Z,12.63
2019-05-20T02:49:18.578Z,13.25
2019-05-20T02:53:23.481Z,15.25
2019-05-20T02:57:28.692Z,14.63
2019-05-20T03:01:33.576Z,16.15
2019-05-20T03:05:38.581Z,16.77
2019-05-20T03:09:43.397Z,17.82
2019-05-20T03:13:48.661Z,16.70
2019-05-20T03:17:53.827Z,15.75
2019-05-20T03:21:58.636Z,17.05
2019-05-20T03:26:03.544Z,18.62
2019-05-20T03:30:09.179Z,20.82
2019-05-20T03:34:41.754Z,21.20
2019-05-20T03:38:20.572Z,20.43
2019-05-20T03:42:25.468Z,21.07
2019-05-20T03:46:30.397Z,22.45
2019-05-20T03:50:35.260Z,18.05
2019-05-20T03:54:40.165Z,18.30
2019-05-20T03:58:45.302Z,20.57
2019-05-20T04:02:50.117Z,20.35
2019-05-20T04:06:54.943Z,18.32
2019-05-20T04:10:59.667Z,20.95
2019-05-20T04:15:05.133Z,21.07
2019-05-20T04:19:10.022Z,22.95
2019-05-20T04:23:14.864Z,20.10
2019-05-20T04:27:19.849Z,22.30
2019-05-20T04:31:24.725Z,20.02
2019-05-20T04:35:29.635Z,21.48
2019-05-20T04:39:34.477Z,20.35
2019-05-20T04:43:39.332Z,23.00
2019-05-20T04:47:44.183Z,27.52
2019-05-20T04:51:48.986Z,24.50
2019-05-20T04:55:53.895Z,26.48
2019-05-20T04:59:58.794Z,20.52
2019-05-20T05:04:03.984Z,15.05
2019-05-20T05:08:09.108Z,18.50
2019-05-20T05:12:13.932Z,17.10
2019-05-20T05:16:18.816Z,16.77
2019-05-20T05:20:23.634Z,17.75
2019-05-20T05:24:28.535Z,21.12
2019-05-20T05:28:34.612Z,18.80
2019-05-20T05:32:42.746Z,17.40
2019-05-20T05:36:47.851Z,17.45
2019-05-20T05:40:52.745Z,18.82
2019-05-20T05:44:57.572Z,17.00
2019-05-20T05:49:02.419Z,19.50
2019-05-20T05:53:07.237Z,21.17
2019-05-20T05:57:12.041Z,20.00
2019-05-20T06:01:16.859Z,22.35
2019-05-20T06:05:21.759Z,30.23
2019-05-20T06:09:26.517Z,36.17
2019-05-20T06:13:31.392Z,34.58
2019-05-20T06:17:37.346Z,35.38
2019-05-20T06:21:42.181Z,32.88
2019-05-20T06:25:46.943Z,31.75
2019-05-20T06:29:51.758Z,28.73
2019-05-20T06:33:56.665Z,26.37
2019-05-20T06:38:03.518Z,25.32
2019-05-20T06:42:08.411Z,27.58
2019-05-20T06:46:13.266Z,31.02
2019-05-20T06:50:18.192Z,30.30
2019-05-20T06:54:22.953Z,29.77
2019-05-20T06:58:27.702Z,34.58
2019-05-20T07:02:32.521Z,47.13
2019-05-20T07:06:46.710Z,47.50
2019-05-20T07:10:44.768Z,58.05
2019-05-20T07:14:49.737Z,67.50
2019-05-20T07:18:54.491Z,57.27
2019-05-20T07:22:59.735Z,67.92
2019-05-20T07:27:04.800Z,58.80
2019-05-20T07:31:10.108Z,64.32
2019-05-20T07:35:28.876Z,55.88
2019-05-20T07:39:21.729Z,51.23
2019-05-20T07:43:26.653Z,53.42
2019-05-20T07:47:31.921Z,60.23
2019-05-20T07:51:39.730Z,57.53
2019-05-20T07:55:56.103Z,58.10
2019-05-20T08:00:01.020Z,53.73
2019-05-20T08:04:05.920Z,51.80
2019-05-20T08:08:10.753Z,54.15
2019-05-20T08:12:15.646Z,50.35
2019-05-20T08:16:20.549Z,50.52
2019-05-20T08:20:25.456Z,51.25
2019-05-20T08:24:30.359Z,46.33
2019-05-20T08:28:35.247Z,48.95
2019-05-20T08:32:40.203Z,44.65
2019-05-20T08:36:45.040Z,45.98
2019-05-20T08:40:49.861Z,47.83
2019-05-20T08:44:54.774Z,39.83
2019-05-20T08:48:59.755Z,38.30
2019-05-20T08:53:04.925Z,40.67
2019-05-20T08:57:09.887Z,33.98
2019-05-20T09:01:14.712Z,38.20
2019-05-20T09:05:20.120Z,37.17
2019-05-20T09:09:25.327Z,43.10
2019-05-20T09:13:30.442Z,39.85
2019-05-20T09:17:38.673Z,39.10
2019-05-20T09:21:41.928Z,38.85
2019-05-20T09:25:46.684Z,34.63
2019-05-20T09:29:51.643Z,44.60
2019-05-20T09:33:57.748Z,33.65
2019-05-20T09:38:17.197Z,35.95
2019-05-20T09:42:09.278Z,34.83
2019-05-20T09:46:15.265Z,41.00
2019-05-20T09:50:20.069Z,35.90
2019-05-20T09:54:24.830Z,39.48
2019-05-20T09:58:30.624Z,43.40
2019-05-20T10:02:38.319Z,33.33
2019-05-20T10:06:42.050Z,29.92
2019-05-20T10:10:47.118Z,34.23
2019-05-20T10:14:52.889Z,31.97
2019-05-20T10:18:58.177Z,31.90
2019-05-20T10:23:03.125Z,31.73
2019-05-20T10:27:07.898Z,31.85
2019-05-20T10:31:12.779Z,32.58
2019-05-20T10:35:18.314Z,36.00
2019-05-20T10:39:23.217Z,33.80
2019-05-20T10:43:28.053Z,34.85
2019-05-20T10:47:32.965Z,37.45
2019-05-20T10:51:37.785Z,33.15
2019-05-20T10:55:42.773Z,30.12
2019-05-20T10:59:47.555Z,31.55
2019-05-20T11:03:53.681Z,30.55
2019-05-20T11:07:58.587Z,29.87
2019-05-20T11:12:03.469Z,31.12
2019-05-20T11:16:09.347Z,31.37
2019-05-20T11:20:15.556Z,29.92
2019-05-20T11:24:20.375Z,31.80
2019-05-20T11:28:25.213Z,27.67
2019-05-20T11:32:30.048Z,24.82
2019-05-20T11:36:34.962Z,27.35
2019-05-20T11:40:39.844Z,29.25
2019-05-20T11:44:44.754Z,30.50
2019-05-20T11:48:49.528Z,27.25
2019-05-20T11:52:54.369Z,30.88
2019-05-20T11:56:59.090Z,35.55
2019-05-20T12:01:04.212Z,32.70
2019-05-20T12:05:10.096Z,35.45
2019-05-20T12:09:15.997Z,35.15
2019-05-20T12:13:20.807Z,38.35
2019-05-20T12:17:25.610Z,37.28
2019-05-20T12:21:30.908Z,39.58
2019-05-20T12:25:35.976Z,30.30
2019-05-20T12:29:40.862Z,28.92
2019-05-20T12:33:45.704Z,22.55
2019-05-20T12:37:50.518Z,23.80
2019-05-20T12:41:55.430Z,23.42
2019-05-20T12:46:00.447Z,22.50
2019-05-20T12:50:06.378Z,17.77
2019-05-20T12:54:11.122Z,15.90
2019-05-20T12:58:16.125Z,16.57
2019-05-20T13:02:20.946Z,14.05
2019-05-20T13:06:26.933Z,10.88
2019-05-20T13:10:32.593Z,9.40
2019-05-20T13:14:37.917Z,5.92
2019-05-20T13:18:54.942Z,8.10
2019-05-20T13:22:49.235Z,7.28
2019-05-20T13:26:54.208Z,9.43
2019-05-20T13:30:58.965Z,9.70
2019-05-20T13:35:03.922Z,13.90
2019-05-20T13:39:08.856Z,5.87
2019-05-20T13:43:13.652Z,3.35
2019-05-20T13:47:18.494Z,4.67
2019-05-20T13:51:23.228Z,6.15
2019-05-20T13:55:27.974Z,6.90
2019-05-20T13:59:33.010Z,6.20
2019-05-20T14:03:37.815Z,4.35
2019-05-20T14:07:43.260Z,3.67
2019-05-20T14:11:48.077Z,4.28
2019-05-20T14:15:52.963Z,3.60
2019-05-20T14:19:57.716Z,3.83
2019-05-20T14:24:02.590Z,3.60
2019-05-20T14:28:07.474Z,7.28
2019-05-20T14:32:12.352Z,11.68
2019-05-20T14:36:37.976Z,13.62
2019-05-20T14:40:23.812Z,15.25
2019-05-20T14:44:28.730Z,16.87
2019-05-20T14:48:33.564Z,17.85
2019-05-20T14:52:38.605Z,19.65
2019-05-20T14:56:43.537Z,13.05
2019-05-20T15:00:48.428Z,15.72
2019-05-20T15:04:53.337Z,19.42
2019-05-20T15:08:58.164Z,15.08
2019-05-20T15:13:02.904Z,14.30
2019-05-20T15:17:07.877Z,13.48
2019-05-20T15:21:12.696Z,12.68
2019-05-20T15:25:17.892Z,17.07
2019-05-20T15:29:28.000Z,14.38
2019-05-20T15:33:29.197Z,10.82
2019-05-20T15:37:34.419Z,16.30
2019-05-20T15:41:39.305Z,11.50
2019-05-20T15:45:44.213Z,12.03
2019-05-20T15:49:48.938Z,12.65
2019-05-20T15:53:53.841Z,11.75
2019-05-20T15:57:58.758Z,9.70
2019-05-20T16:02:03.664Z,10.93
2019-05-20T16:06:08.530Z,7.80
2019-05-20T16:10:14.217Z,5.28
2019-05-20T16:14:19.033Z,6.35
2019-05-20T16:18:23.853Z,3.40
2019-05-20T16:22:28.796Z,4.20
2019-05-20T16:26:33.687Z,4.22
2019-05-20T16:30:38.736Z,3.65
2019-05-20T16:34:43.560Z,2.98
2019-05-20T16:38:48.280Z,3.72
2019-05-20T16:42:53.196Z,4.50
2019-05-20T16:46:58.087Z,4.72
2019-05-20T16:51:03.681Z,5.10
2019-05-20T16:55:09.291Z,3.98
2019-05-20T16:59:14.380Z,7.30
2019-05-20T17:03:23.946Z,8.03
2019-05-20T17:07:28.978Z,8.55
2019-05-20T17:11:33.764Z,9.83
2019-05-20T17:15:38.900Z,10.63
2019-05-20T17:19:43.722Z,16.95
2019-05-20T17:23:48.562Z,17.12
2019-05-20T17:27:53.396Z,23.42
2019-05-20T17:31:58.204Z,21.82
2019-05-20T17:36:03.370Z,21.95
2019-05-20T17:40:09.301Z,23.50
2019-05-20T17:44:14.196Z,25.05
2019-05-20T17:48:19.193Z,33.42
2019-05-20T17:52:24.106Z,24.57
2019-05-20T17:56:28.924Z,29.67
2019-05-20T18:00:33.737Z,29.02
2019-05-20T18:04:38.634Z,37.05
2019-05-20T18:08:46.424Z,41.90
2019-05-20T18:12:51.178Z,34.05
2019-05-20T18:16:56.553Z,42.65
2019-05-20T18:21:01.489Z,34.53
2019-05-20T18:25:07.128Z,35.70
2019-05-20T18:29:12.082Z,34.70
2019-05-20T18:33:16.989Z,42.78
2019-05-20T18:37:21.760Z,36.88
2019-05-20T18:41:26.520Z,41.83
2019-05-20T18:45:32.449Z,44.30
2019-05-20T18:49:40.759Z,51.10
2019-05-20T18:53:43.965Z,44.45
2019-05-20T18:57:48.788Z,41.95
2019-05-20T19:02:04.599Z,40.30
2019-05-20T19:06:00.135Z,39.38
2019-05-20T19:10:05.740Z,38.15
2019-05-20T19:14:11.076Z,34.58
2019-05-20T19:18:16.260Z,33.78
2019-05-20T19:22:21.012Z,37.35
2019-05-20T19:26:25.920Z,33.25
2019-05-20T19:30:30.773Z,35.45
2019-05-20T19:34:35.525Z,35.10
2019-05-20T19:38:40.431Z,34.75
2019-05-20T19:42:45.176Z,39.23
2019-05-20T19:46:50.040Z,39.63
2019-05-20T19:50:55.074Z,34.03
2019-05-20T19:54:59.835Z,32.48
2019-05-20T19:59:04.650Z,33.50
2019-05-20T20:03:09.414Z,27.87
2019-05-20T20:07:14.435Z,24.67
2019-05-20T20:11:19.202Z,29.98
2019-05-20T20:15:24.125Z,25.50
2019-05-20T20:19:29.041Z,22.58
2019-05-20T20:23:33.942Z,26.10
2019-05-20T20:27:38.885Z,23.42
2019-05-20T20:31:44.896Z,23.35
2019-05-20T20:35:49.872Z,20.48
2019-05-20T20:39:54.756Z,27.07
2019-05-20T20:43:59.660Z,24.00
2019-05-20T20:48:04.668Z,19.40
2019-05-20T20:52:09.453Z,22.95
2019-05-20T20:56:24.617Z,22.00
2019-05-20T21:00:20.884Z,23.10
2019-05-20T21:04:25.729Z,20.20
2019-05-20T21:08:30.544Z,22.62
2019-05-20T21:12:35.451Z,15.85
2019-05-20T21:16:40.284Z,14.13
2019-05-20T21:20:45.177Z,8.80
2019-05-20T21:24:50.831Z,8.33
2019-05-20T21:28:55.696Z,9.98
2019-05-20T21:33:08.746Z,14.03
2019-05-20T21:37:07.190Z,17.42
2019-05-20T21:41:12.025Z,22.52
2019-05-20T21:45:16.840Z,30.23
2019-05-20T21:49:21.697Z,27.82
2019-05-20T21:53:26.436Z,24.65
2019-05-20T21:57:31.295Z,24.07
2019-05-20T22:01:36.583Z,24.23
2019-05-20T22:05:41.548Z,19.95
2019-05-20T22:09:46.375Z,19.60
2019-05-20T22:13:54.036Z,19.02
2019-05-20T22:17:58.936Z,18.30
2019-05-20T22:22:20.549Z,16.10
2019-05-20T22:26:26.492Z,16.37
2019-05-20T22:30:31.311Z,17.37
2019-05-20T22:34:36.067Z,11.38
2019-05-20T22:38:40.889Z,11.20
2019-05-20T22:42:45.643Z,13.03
2019-05-20T22:46:50.484Z,13.32
2019-05-20T22:50:55.215Z,12.58
2019-05-20T22:54:59.959Z,13.98
2019-05-20T22:59:04.850Z,16.17
2019-05-20T23:03:09.602Z,20.17
2019-05-20T23:07:14.497Z,18.15
2019-05-20T23:11:19.376Z,19.15
2019-05-20T23:15:24.165Z,18.15
2019-05-20T23:19:29.048Z,20.20
2019-05-20T23:23:33.827Z,20.72
2019-05-20T23:27:38.711Z,17.52
2019-05-20T23:31:43.764Z,12.37
2019-05-20T23:35:48.508Z,16.23
2019-05-20T23:39:53.333Z,17.95
2019-05-20T23:43:58.177Z,16.62
2019-05-20T23:48:03.059Z,14.10
2019-05-20T23:52:07.859Z,16.25
2019-05-20T23:56:12.690Z,19.27
